Time;durP1;ratioP1;P1;durP2;ratioP2;P2;SDS_P1;SDS_P2;PMS_P1;PMS_P2;Temp;Humidity;BMP_temperature;BMP_pressure;BME280_temperature;BME280_humidity;BME280_pressure;Samples;Min_cycle;Max_cycle;Signal;HPM_P1;HPM_P2
2024/03/12 00:00:37;;;;;;;13.10;6.18;;;;;;;11.83;100.00;99542.50;5087573;28;20032;-77
2024/03/12 00:03:07;;;;;;;10.73;6.45;;;;;;;11.92;100.00;99545.63;5087535;28;20028;-77
2024/03/12 00:05:32;;;;;;;11.95;5.72;;;;;;;11.96;100.00;99531.53;5087555;28;20075;-77
2024/03/12 00:07:58;;;;;;;13.00;5.90;;;;;;;11.95;100.00;99510.41;5068854;28;20110;-77
2024/03/12 00:10:24;;;;;;;13.68;6.30;;;;;;;12.04;100.00;99520.47;5087324;28;20031;-76
2024/03/12 00:12:51;;;;;;;11.75;6.10;;;;;;;12.12;100.00;99500.53;5069225;28;20892;-77
2024/03/12 00:15:22;;;;;;;9.80;5.78;;;;;;;11.98;100.00;99456.50;5086750;28;20032;-77
2024/03/12 00:17:49;;;;;;;12.15;6.40;;;;;;;12.20;100.00;99473.41;5067861;28;20024;-77
2024/03/12 00:20:17;;;;;;;10.00;6.18;;;;;;;12.19;100.00;99487.81;5087259;28;20028;-77
2024/03/12 00:22:47;;;;;;;12.93;6.07;;;;;;;12.36;100.00;99485.16;5087002;28;20059;-77
2024/03/12 00:25:19;;;;;;;10.10;6.07;;;;;;;12.38;100.00;99488.38;5068659;28;20024;-78
2024/03/12 00:27:48;;;;;;;12.15;6.40;;;;;;;12.33;100.00;99495.53;5086187;28;20056;-77
2024/03/12 00:30:15;;;;;;;11.98;6.28;;;;;;;12.13;100.00;99491.47;5087070;28;20029;-77
2024/03/12 00:32:41;;;;;;;10.43;6.53;;;;;;;12.05;100.00;99494.53;5086759;28;20063;-78
2024/03/12 00:35:10;;;;;;;12.73;6.75;;;;;;;12.03;100.00;99492.13;5087459;28;20032;-77
2024/03/12 00:37:41;;;;;;;11.38;6.88;;;;;;;11.96;100.00;99479.97;5086688;28;20150;-78
2024/03/12 00:40:13;;;;;;;14.07;7.35;;;;;;;11.98;100.00;99473.31;5067293;28;20057;-77
2024/03/12 00:42:46;;;;;;;13.13;7.30;;;;;;;12.10;100.00;99499.19;5086657;28;20115;-77
2024/03/12 00:45:12;;;;;;;9.80;5.75;;;;;;;12.11;100.00;99503.44;5087688;28;20517;-77
2024/03/12 00:47:40;;;;;;;11.80;5.95;;;;;;;12.14;100.00;99497.63;5087106;28;20085;-78
2024/03/12 00:50:07;;;;;;;12.40;6.90;;;;;;;12.04;100.00;99477.69;5086630;28;20048;-77
2024/03/12 00:52:33;;;;;;;11.70;6.72;;;;;;;12.04;100.00;99483.03;5087261;28;20066;-77
2024/03/12 00:55:00;;;;;;;14.10;6.35;;;;;;;12.04;100.00;99472.34;5068835;28;20111;-77
2024/03/12 00:57:27;;;;;;;11.98;5.60;;;;;;;12.17;100.00;99486.44;5087186;28;20114;-78
2024/03/12 00:59:52;;;;;;;13.27;5.70;;;;;;;11.96;100.00;99454.06;5086988;28;20062;-77
2024/03/12 01:02:19;;;;;;;10.25;5.78;;;;;;;11.88;100.00;99441.06;5069105;28;20527;-77
2024/03/12 01:04:45;;;;;;;9.45;6.40;;;;;;;11.91;100.00;99445.97;5086215;28;20024;-77
2024/03/12 01:07:12;;;;;;;13.05;5.68;;;;;;;11.79;100.00;99443.34;5085984;28;20024;-77
2024/03/12 01:09:40;;;;;;;10.73;5.75;;;;;;;11.90;100.00;99435.50;5086067;28;20493;-77
2024/03/12 01:12:13;;;;;;;;;;;;;;;12.11;100.00;99431.28;5069573;28;20028;-77
2024/03/12 01:14:38;;;;;;;11.18;5.80;;;;;;;12.10;100.00;99410.97;5087063;28;19904;-77
2024/03/12 01:17:07;;;;;;;8.30;5.00;;;;;;;12.01;100.00;99421.25;5086438;28;20020;-77
2024/03/12 01:19:35;;;;;;;12.60;5.97;;;;;;;11.91;100.00;99413.91;5086609;28;20053;-76
2024/03/12 01:22:01;;;;;;;12.15;4.80;;;;;;;11.76;100.00;99397.59;5086483;28;20032;-76
2024/03/12 01:24:27;;;;;;;10.13;4.50;;;;;;;11.98;100.00;99403.84;5068276;28;20089;-77
2024/03/12 01:26:52;;;;;;;11.82;4.95;;;;;;;12.06;100.00;99416.00;5086105;28;20035;-76
2024/03/12 01:29:18;;;;;;;9.43;4.55;;;;;;;11.95;100.00;99415.03;5085941;28;20437;-77
2024/03/12 01:31:44;;;;;;;10.00;4.97;;;;;;;11.70;100.00;99402.03;5071685;28;20505;-77
2024/03/12 01:34:13;;;;;;;12.27;5.32;;;;;;;11.57;100.00;99405.84;5089685;28;20024;-77
2024/03/12 01:36:39;;;;;;;10.50;4.82;;;;;;;11.57;100.00;99408.50;5071453;28;20401;-78
2024/03/12 01:39:08;;;;;;;10.13;5.20;;;;;;;11.38;100.00;99381.22;5090134;28;20032;-77
2024/03/12 01:41:41;;;;;;;12.82;6.55;;;;;;;11.55;100.00;99389.25;5073896;28;20062;-77
2024/03/12 01:44:08;;;;;;;13.77;6.55;;;;;;;11.24;100.00;99367.38;5090368;28;20093;-77
2024/03/12 01:46:35;;;;;;;11.85;6.05;;;;;;;11.43;100.00;99386.63;5089999;28;20115;-76
2024/03/12 01:49:04;;;;;;;12.37;6.07;;;;;;;11.55;100.00;99399.94;5089789;28;20495;-76
2024/03/12 01:51:31;;;;;;;14.10;5.80;;;;;;;11.38;100.00;99399.06;5090239;28;21005;-77
2024/03/12 01:53:57;;;;;;;10.85;6.38;;;;;;;11.48;100.00;99383.22;5089916;28;20081;-77
2024/03/12 01:56:24;;;;;;;10.15;5.82;;;;;;;11.22;100.00;99364.13;5090114;28;20024;-77
2024/03/12 01:58:50;;;;;;;10.60;4.55;;;;;;;11.17;100.00;99365.88;5080413;28;20028;-78
2024/03/12 02:01:19;;;;;;;8.00;4.68;;;;;;;11.34;100.00;99377.41;5090365;28;20020;-77
2024/03/12 02:03:52;;;;;;;10.48;4.63;;;;;;;11.54;100.00;99368.91;5089913;28;20024;-77
2024/03/12 02:06:22;;;;;;;9.70;4.40;;;;;;;11.60;100.00;99381.31;5071455;28;20447;-76
2024/03/12 02:08:52;;;;;;;9.85;5.18;;;;;;;11.44;100.00;99350.06;5088854;28;20101;-77
2024/03/12 02:11:19;;;;;;;9.27;3.88;;;;;;;11.54;100.00;99370.78;5090723;28;20085;-76
2024/03/12 02:13:45;;;;;;;12.77;4.25;;;;;;;11.53;100.00;99337.94;5089498;28;20035;-77
2024/03/12 02:16:11;;;;;;;11.40;4.25;;;;;;;11.76;100.00;99354.84;5089882;28;20043;-77
2024/03/12 02:18:37;;;;;;;8.32;3.03;;;;;;;11.72;100.00;99349.19;5089146;28;20035;-77
2024/03/12 02:21:03;;;;;;;8.77;3.35;;;;;;;11.87;100.00;99348.63;5071419;28;20032;-76
2024/03/12 02:23:38;;;;;;;9.10;3.53;;;;;;;11.93;100.00;99347.66;5088843;28;20031;-77
2024/03/12 02:26:09;;;;;;;7.85;3.60;;;;;;;11.87;100.00;99359.31;5089335;28;20032;-77
2024/03/12 02:28:37;;;;;;;10.80;5.38;;;;;;;11.62;100.00;99347.16;5088719;28;20034;-77
2024/03/12 02:31:04;;;;;;;11.85;5.03;;;;;;;11.43;100.00;99325.22;5088903;28;20028;-77
2024/03/12 02:33:30;;;;;;;8.00;4.70;;;;;;;11.59;100.00;99353.00;5089542;28;20082;-77
2024/03/12 02:35:56;;;;;;;9.75;4.35;;;;;;;11.57;100.00;99344.41;5058159;28;20028;-77
2024/03/12 02:38:21;;;;;;;9.55;2.80;;;;;;;11.89;100.00;99329.69;5089226;28;20107;-77
2024/03/12 02:40:47;;;;;;;6.13;2.30;;;;;;;12.15;100.00;99341.53;5088007;28;20071;-77
2024/03/12 02:43:13;;;;;;;6.97;2.45;;;;;;;12.29;100.00;99347.34;5071213;28;20028;-76
2024/03/12 02:45:39;;;;;;;9.00;2.70;;;;;;;12.20;100.00;99336.28;5088166;28;20020;-77
2024/03/12 02:48:05;;;;;;;7.97;2.67;;;;;;;12.29;100.00;99353.50;5088766;28;20028;-76
2024/03/12 02:50:31;;;;;;;6.10;2.22;;;;;;;12.31;100.00;99332.66;5088957;28;20032;-78
2024/03/12 02:52:56;;;;;;;17.80;8.35;;;;;;;12.33;100.00;99354.63;5088540;28;20024;-77
2024/03/12 02:55:22;;;;;;;11.65;3.10;;;;;;;12.35;100.00;99381.91;5088395;28;20039;-78
2024/03/12 02:57:47;;;;;;;8.85;2.28;;;;;;;12.38;100.00;99423.38;5070161;28;20074;-77
2024/03/12 03:00:14;;;;;;;8.40;4.18;;;;;;;12.26;100.00;99428.84;5088277;28;20036;-77
2024/03/12 03:02:41;;;;;;;12.35;6.70;;;;;;;11.86;100.00;99435.16;5088688;28;20378;-77
2024/03/12 03:05:07;;;;;;;15.85;9.85;;;;;;;11.56;100.00;99459.47;5088700;28;20110;-77
2024/03/12 03:07:35;;;;;;;19.27;10.65;;;;;;;11.46;100.00;99444.91;5088097;28;20036;-77
2024/03/12 03:10:00;;;;;;;15.70;9.15;;;;;;;11.48;100.00;99438.50;5088115;28;20024;-76
2024/03/12 03:12:27;;;;;;;16.33;8.88;;;;;;;11.54;100.00;99454.38;5069972;28;20036;-77
2024/03/12 03:14:52;;;;;;;16.67;9.63;;;;;;;11.58;100.00;99444.03;5088506;28;20036;-77
2024/03/12 03:17:18;;;;;;;18.77;9.32;;;;;;;11.66;100.00;99449.78;5070242;28;20110;-77
2024/03/12 03:19:43;;;;;;;20.85;10.52;;;;;;;11.77;100.00;99448.09;5088325;28;20072;-78
2024/03/12 03:22:09;;;;;;;16.75;10.57;;;;;;;11.71;100.00;99443.72;5088278;28;20035;-77
2024/03/12 03:24:36;;;;;;;19.42;10.60;;;;;;;11.63;100.00;99452.94;5087485;28;20143;-78
2024/03/12 03:27:05;;;;;;;17.80;10.50;;;;;;;11.51;100.00;99465.53;5087873;28;20024;-78
2024/03/12 03:29:34;;;;;;;20.27;11.77;;;;;;;11.33;100.00;99423.84;5087087;28;20040;-77
2024/03/12 03:32:00;;;;;;;22.20;11.57;;;;;;;11.38;100.00;99471.16;5069573;28;20035;-78
2024/03/12 03:34:29;;;;;;;20.02;11.23;;;;;;;11.41;100.00;99473.38;5087216;28;20036;-78
2024/03/12 03:36:58;;;;;;;20.50;11.77;;;;;;;11.29;100.00;99475.28;5069326;28;20413;-78
2024/03/12 03:39:25;;;;;;;20.80;11.65;;;;;;;11.11;100.00;99462.91;5077858;28;20039;-78
2024/03/12 03:41:51;;;;;;;23.98;13.10;;;;;;;11.09;100.00;99446.31;5069273;28;20032;-79
2024/03/12 03:44:17;;;;;;;19.60;12.60;;;;;;;11.18;100.00;99448.38;5087280;28;20036;-79
2024/03/12 03:46:43;;;;;;;22.35;12.60;;;;;;;11.05;100.00;99412.13;5087353;28;20044;-79
2024/03/12 03:49:08;;;;;;;22.40;13.35;;;;;;;10.95;100.00;99411.09;5069380;28;20043;-79
2024/03/12 03:51:35;;;;;;;23.70;13.85;;;;;;;11.06;100.00;99426.28;5087318;28;20554;-79
2024/03/12 03:54:01;;;;;;;21.70;12.93;;;;;;;11.00;100.00;99440.56;5069151;28;20127;-79
2024/03/12 03:56:27;;;;;;;21.95;12.55;;;;;;;11.20;100.00;99467.66;5087090;28;20153;-79
2024/03/12 03:58:56;;;;;;;23.67;13.38;;;;;;;11.02;100.00;99484.63;5086998;28;20115;-79
2024/03/12 04:01:23;;;;;;;25.38;13.93;;;;;;;10.62;100.00;99458.75;5086524;28;20758;-78
2024/03/12 04:03:51;;;;;;;23.65;13.90;;;;;;;10.82;100.00;99478.88;5087323;28;20028;-79
2024/03/12 04:06:21;;;;;;;26.80;13.93;;;;;;;10.99;100.00;99476.28;5086764;28;20020;-78
2024/03/12 04:08:50;;;;;;;22.33;13.63;;;;;;;11.00;100.00;99467.25;5087156;28;20052;-78
2024/03/12 04:11:20;;;;;;;31.30;17.08;;;;;;;11.03;100.00;99440.06;5087122;28;20019;-79
2024/03/12 04:13:54;;;;;;;23.77;14.15;;;;;;;11.17;100.00;99468.09;5086341;28;21238;-79
2024/03/12 04:16:20;;;;;;;28.73;16.67;;;;;;;11.33;100.00;99476.41;5083805;28;20413;-79
2024/03/12 04:18:45;;;;;;;25.60;16.48;;;;;;;11.27;100.00;99478.19;5075839;28;20127;-80
2024/03/12 04:21:14;;;;;;;33.17;18.23;;;;;;;11.31;100.00;99489.19;5083780;28;20477;-79
2024/03/12 04:23:42;;;;;;;;;;;;;;;11.08;100.00;99504.22;5077913;28;20020;-78
2024/03/12 04:26:07;;;;;;;;;;;;;;;10.77;100.00;99511.59;5086403;28;20335;-79
2024/03/12 04:28:33;;;;;;;30.50;17.65;;;;;;;10.71;100.00;99501.84;5086002;28;20407;-79
2024/03/12 04:30:58;;;;;;;29.80;17.55;;;;;;;10.82;100.00;99502.88;5086722;28;20028;-79
2024/03/12 04:33:24;;;;;;;28.95;18.67;;;;;;;10.87;100.00;99516.34;5074422;28;20059;-79
2024/03/12 04:35:52;;;;;;;34.72;19.90;;;;;;;10.81;100.00;99527.94;5076214;28;20524;-79
2024/03/12 04:38:18;;;;;;;;;;;;;;;10.91;100.00;99522.00;5077468;28;20764;-79
2024/03/12 04:40:47;;;;;;;23.25;14.43;;;;;;;10.77;100.00;99503.59;5072814;28;19912;-78
2024/03/12 04:43:13;;;;;;;23.23;13.15;;;;;;;10.81;100.00;99511.94;5085961;28;20123;-78
2024/03/12 04:45:42;;;;;;;17.13;11.88;;;;;;;10.86;100.00;99494.16;5082701;28;20020;-78
2024/03/12 04:48:08;;;;;;;21.67;11.82;;;;;;;10.91;100.00;99501.50;5085705;28;20111;-78
2024/03/12 04:50:33;;;;;;;19.08;10.63;;;;;;;10.74;100.00;99496.03;5085535;28;20111;-78
2024/03/12 04:52:58;;;;;;;18.00;9.98;;;;;;;10.63;100.00;99468.34;5086273;28;20020;-79
2024/03/12 04:55:24;;;;;;;13.48;7.82;;;;;;;10.67;100.00;99494.56;5075664;28;20136;-78
2024/03/12 04:57:49;;;;;;;19.42;9.63;;;;;;;10.70;100.00;99500.22;5068009;28;20497;-78
2024/03/12 05:00:18;;;;;;;14.32;7.38;;;;;;;10.88;100.00;99511.81;5067829;28;20818;-78
2024/03/12 05:02:48;;;;;;;11.95;7.57;;;;;;;10.70;100.00;99510.88;5086419;28;20792;-77
2024/03/12 05:05:17;;;;;;;13.73;7.20;;;;;;;10.69;100.00;99490.63;5088560;28;20397;-78
2024/03/12 05:07:43;;;;;;;13.90;7.45;;;;;;;10.86;100.00;99523.50;5089993;28;20035;-77
2024/03/12 05:10:09;;;;;;;16.88;9.75;;;;;;;10.81;100.00;99523.41;5089882;28;20436;-77
2024/03/12 05:12:34;;;;;;;15.23;8.77;;;;;;;10.70;100.00;99516.22;5089820;28;20501;-77
2024/03/12 05:14:59;;;;;;;15.68;11.82;;;;;;;10.81;100.00;99526.09;5090096;28;20511;-77
2024/03/12 05:17:25;;;;;;;22.27;12.98;;;;;;;10.87;100.00;99527.00;5071884;28;20044;-78
2024/03/12 05:19:50;;;;;;;15.27;7.20;;;;;;;10.74;100.00;99488.03;5089648;28;20519;-77
2024/03/12 05:22:16;;;;;;;13.05;7.22;;;;;;;10.82;100.00;99506.34;5089624;28;20489;-77
2024/03/12 05:24:41;;;;;;;13.80;6.47;;;;;;;10.94;100.00;99505.53;5090284;28;20035;-77
2024/03/12 05:27:07;;;;;;;12.15;6.85;;;;;;;10.94;100.00;99510.88;5090277;28;20042;-78
2024/03/12 05:29:43;;;;;;;13.98;7.28;;;;;;;11.21;100.00;99516.50;5089144;28;20039;-77
2024/03/12 05:32:17;;;;;;;13.98;8.43;;;;;;;11.07;100.00;99502.59;5089580;28;20103;-78
2024/03/12 05:34:47;;;;;;;12.18;6.10;;;;;;;11.33;100.00;99529.81;5089898;28;20024;-78
2024/03/12 05:37:29;;;;;;;17.92;13.93;;;;;;;11.23;100.00;99528.53;5071268;28;20020;-78
2024/03/12 05:40:10;;;;;;;15.20;6.60;;;;;;;11.13;100.00;99515.00;5089470;28;20028;-79
2024/03/12 05:48:09;;;;;;;11.75;5.30;;;;;;;11.05;100.00;99528.69;5089012;28;20032;-78
2024/03/12 05:50:34;;;;;;;7.68;3.53;;;;;;;10.86;100.00;99526.19;5088611;28;20030;-78
2024/03/12 05:53:00;;;;;;;7.20;3.15;;;;;;;11.04;100.00;99537.75;5070737;28;20035;-77
2024/03/12 05:55:25;;;;;;;6.85;3.30;;;;;;;10.84;100.00;99517.59;5089103;28;20046;-78
2024/03/12 05:57:50;;;;;;;6.70;3.47;;;;;;;10.98;100.00;99544.03;5088918;28;20048;-78
2024/03/12 06:00:17;;;;;;;10.55;5.38;;;;;;;10.95;100.00;99560.50;5088905;28;21344;-78
2024/03/12 06:02:43;;;;;;;12.20;5.13;;;;;;;10.76;100.00;99557.97;5088945;28;20039;-78
2024/03/12 06:05:12;;;;;;;7.63;4.18;;;;;;;10.92;100.00;99566.31;5089206;28;20024;-79
2024/03/12 06:07:42;;;;;;;18.10;8.52;;;;;;;10.90;100.00;99568.41;5088849;28;20032;-78
2024/03/12 06:10:09;;;;;;;13.82;9.52;;;;;;;10.84;100.00;99554.13;5088313;28;20382;-78
2024/03/12 06:12:34;;;;;;;13.77;8.77;;;;;;;10.86;100.00;99574.19;5089289;28;20075;-78
2024/03/12 06:14:59;;;;;;;14.18;9.60;;;;;;;10.84;100.00;99567.47;5088510;28;20036;-78
2024/03/12 06:17:25;;;;;;;13.02;8.82;;;;;;;10.91;100.00;99560.19;5089254;28;20063;-78
2024/03/12 06:19:51;;;;;;;12.05;5.88;;;;;;;11.04;100.00;99551.91;5088647;28;20027;-79
2024/03/12 06:22:17;;;;;;;9.27;4.53;;;;;;;10.88;100.00;99549.16;5088875;28;20028;-78
2024/03/12 06:24:42;;;;;;;7.00;3.15;;;;;;;10.69;100.00;99559.94;5070635;28;20105;-78
2024/03/12 06:27:08;;;;;;;6.85;2.90;;;;;;;10.64;100.00;99581.97;5088750;28;20536;-78
2024/03/12 06:29:34;;;;;;;6.35;2.58;;;;;;;10.56;100.00;99584.16;5073179;28;20135;-79
2024/03/12 06:31:59;;;;;;;5.55;2.67;;;;;;;10.44;100.00;99557.47;5087829;28;20672;-78
2024/03/12 06:34:28;;;;;;;5.25;2.00;;;;;;;10.38;100.00;99572.56;5087982;28;20035;-78
2024/03/12 06:37:00;;;;;;;5.85;1.98;;;;;;;10.34;100.00;99575.88;5085761;28;20028;-78
2024/03/12 06:39:31;;;;;;;3.72;1.67;;;;;;;10.33;100.00;99587.59;5070045;28;20044;-77
2024/03/12 06:42:07;;;;;;;4.32;1.52;;;;;;;10.37;100.00;99581.56;5087844;28;20436;-78
2024/03/12 06:44:40;;;;;;;2.33;1.40;;;;;;;10.44;100.00;99592.97;5070487;28;20054;-79
2024/03/12 06:47:09;;;;;;;3.95;1.35;;;;;;;10.22;100.00;99541.22;5088437;28;20111;-78
2024/03/12 06:49:36;;;;;;;3.83;1.58;;;;;;;10.50;100.00;99542.41;5088365;28;20040;-77
2024/03/12 06:52:06;;;;;;;3.17;1.42;;;;;;;10.62;100.00;99529.91;5087838;28;20504;-78
2024/03/12 06:54:32;;;;;;;8.30;4.30;;;;;;;10.98;100.00;99517.34;5088757;28;20111;-77
2024/03/12 06:56:57;;;;;;;10.55;5.57;;;;;;;11.33;100.00;99524.47;5069796;28;20032;-78
2024/03/12 06:59:24;;;;;;;11.63;5.72;;;;;;;11.53;100.00;99530.19;5069964;28;20096;-78
2024/03/12 07:01:53;;;;;;;56.53;33.03;;;;;;;11.38;100.00;99501.34;5087890;28;20020;-78
2024/03/12 07:04:23;;;;;;;46.72;26.60;;;;;;;11.70;100.00;99502.72;5088034;28;20028;-78
2024/03/12 07:06:50;;;;;;;34.95;20.65;;;;;;;11.95;100.00;99489.03;5087741;28;20028;-78
2024/03/12 07:09:23;;;;;;;30.23;21.20;;;;;;;12.16;100.00;99484.84;5087858;28;20489;-78
2024/03/12 07:11:48;;;;;;;30.88;20.30;;;;;;;12.41;100.00;99466.50;5087176;28;20332;-78
2024/03/12 07:14:23;;;;;;;27.48;20.10;;;;;;;12.37;100.00;99465.38;5087862;28;20568;-77
2024/03/12 07:16:52;;;;;;;29.90;20.58;;;;;;;12.67;100.00;99458.84;5087781;28;20028;-78
2024/03/12 07:19:19;;;;;;;29.45;17.77;;;;;;;12.82;100.00;99467.03;5055364;28;20024;-78
2024/03/12 07:21:45;;;;;;;29.85;16.90;;;;;;;12.68;100.00;99468.47;5069041;28;20032;-79
2024/03/12 07:24:13;;;;;;;20.35;13.02;;;;;;;12.80;100.00;99489.75;5086495;28;20030;-78
2024/03/12 07:26:39;;;;;;;;;;;;;;;12.69;100.00;99520.94;5086574;28;20039;-78
2024/03/12 07:29:06;;;;;;;13.20;10.20;;;;;;;12.68;100.00;99532.66;5086671;28;19986;-77
2024/03/12 07:31:35;;;;;;;11.02;8.07;;;;;;;12.83;100.00;99543.59;5087189;28;20126;-78
2024/03/12 07:34:01;;;;;;;10.52;6.45;;;;;;;12.69;100.00;99536.97;5087580;28;20039;-77
2024/03/12 07:36:30;;;;;;;9.75;6.13;;;;;;;12.85;100.00;99536.13;5087761;28;20028;-78
2024/03/12 07:38:58;;;;;;;11.40;6.32;;;;;;;13.02;100.00;99527.25;5087037;28;20110;-78
2024/03/12 07:41:24;;;;;;;10.20;6.80;;;;;;;13.19;100.00;99516.47;5086845;28;20036;-78
2024/03/12 07:43:50;;;;;;;15.32;5.63;;;;;;;13.22;100.00;99522.16;5084604;28;20012;-78
2024/03/12 07:46:17;;;;;;;7.32;4.15;;;;;;;13.16;100.00;99509.75;5087231;28;20097;-78
2024/03/12 07:48:43;;;;;;;7.05;4.00;;;;;;;12.84;100.00;99489.00;5086908;28;20020;-77
2024/03/12 07:51:09;;;;;;;9.32;6.70;;;;;;;13.17;100.00;99513.25;5086748;28;20028;-78
2024/03/12 07:53:35;;;;;;;32.88;26.40;;;;;;;13.29;100.00;99508.59;5087637;28;20035;-78
2024/03/12 07:56:01;;;;;;;15.38;10.35;;;;;;;13.05;100.00;99497.31;5087274;28;20024;-79
2024/03/12 07:58:30;;;;;;;11.50;6.93;;;;;;;13.04;100.00;99515.25;5068975;28;20027;-78
2024/03/12 08:00:55;;;;;;;15.05;11.18;;;;;;;13.32;100.00;99510.78;5087291;28;20042;-78
2024/03/12 08:03:21;;;;;;;19.20;16.17;;;;;;;13.11;100.00;99482.91;5087434;28;20028;-79
2024/03/12 08:05:47;;;;;;;15.80;11.60;;;;;;;12.83;100.00;99487.41;5087193;28;20134;-77
2024/03/12 08:08:13;;;;;;;8.77;5.07;;;;;;;13.11;100.00;99514.25;5084057;28;20034;-78
2024/03/12 08:10:38;;;;;;;15.00;12.27;;;;;;;13.12;100.00;99502.47;5077656;28;20073;-78
2024/03/12 08:13:07;;;;;;;25.73;19.83;;;;;;;13.26;100.00;99501.06;5068112;28;20041;-77
2024/03/12 08:15:32;;;;;;;;;;;;;;;13.40;100.00;99530.94;5072078;28;20036;-78
2024/03/12 08:17:57;;;;;;;14.02;8.80;;;;;;;13.32;100.00;99536.75;5086726;28;19923;-78
2024/03/12 08:20:23;;;;;;;9.88;5.95;;;;;;;13.13;100.00;99526.31;5086819;28;20085;-78
2024/03/12 08:22:48;;;;;;;6.63;3.28;;;;;;;13.12;100.00;99538.09;5088621;28;20032;-77
2024/03/12 08:25:16;;;;;;;5.43;3.22;;;;;;;13.55;100.00;99533.81;5086710;28;20028;-78
2024/03/12 08:27:42;;;;;;;9.27;5.13;;;;;;;13.99;100.00;99538.25;5086314;28;20028;-78
2024/03/12 08:30:08;;;;;;;7.45;3.75;;;;;;;13.83;100.00;99527.41;5077038;28;20037;-78
2024/03/12 08:32:37;;;;;;;5.45;2.67;;;;;;;14.17;100.00;99497.66;5076084;28;20576;-78
2024/03/12 08:35:03;;;;;;;6.15;2.15;;;;;;;14.25;100.00;99531.25;5083742;28;20074;-77
2024/03/12 08:37:29;;;;;;;8.02;4.43;;;;;;;14.00;100.00;99529.97;5087076;28;20132;-78
2024/03/12 08:39:55;;;;;;;23.95;16.25;;;;;;;13.96;100.00;99523.50;5091217;28;20047;-78
2024/03/12 08:42:22;;;;;;;12.57;8.85;;;;;;;14.92;100.00;99545.94;5091494;28;20103;-77
2024/03/12 08:44:48;;;;;;;12.05;8.00;;;;;;;13.76;100.00;99512.59;5091350;28;20028;-78
2024/03/12 08:47:13;;;;;;;7.15;3.60;;;;;;;13.73;100.00;99503.19;5092384;28;20024;-79
2024/03/12 08:49:39;;;;;;;7.13;3.58;;;;;;;15.12;100.00;99517.56;5099666;28;20439;-78
2024/03/12 08:52:05;;;;;;;9.65;6.03;;;;;;;14.30;100.00;99517.06;5102818;28;20471;-76
2024/03/12 08:54:31;;;;;;;5.38;3.28;;;;;;;14.31;100.00;99503.41;5102245;28;20032;-77
2024/03/12 08:56:56;;;;;;;2.97;1.33;;;;;;;15.29;100.00;99506.66;5102327;28;20039;-77
2024/03/12 08:59:22;;;;;;;5.25;2.78;;;;;;;15.49;100.00;99506.72;5102978;28;20034;-77
2024/03/12 09:01:49;;;;;;;5.10;2.95;;;;;;;15.76;100.00;99506.50;5102244;28;20047;-76
2024/03/12 09:04:14;;;;;;;5.57;3.20;;;;;;;15.41;100.00;99493.78;5083472;28;20024;-76
2024/03/12 09:06:40;;;;;;;2.00;0.98;;;;;;;15.41;100.00;99502.66;5084273;28;20035;-77
2024/03/12 09:09:07;;;;;;;3.10;1.50;;;;;;;15.09;100.00;99493.94;5083553;28;20040;-76
2024/03/12 09:11:33;;;;;;;3.58;1.60;;;;;;;15.61;100.00;99503.75;5103348;28;20032;-77
2024/03/12 09:13:59;;;;;;;4.82;2.38;;;;;;;16.15;100.00;99513.28;5102842;28;20110;-76
2024/03/12 09:16:25;;;;;;;1.83;1.17;;;;;;;15.76;100.00;99503.03;5101638;28;20040;-77
2024/03/12 09:18:50;;;;;;;1.08;0.90;;;;;;;15.84;100.00;99499.81;5101028;28;20074;-78
2024/03/12 09:21:17;;;;;;;2.22;1.20;;;;;;;16.34;100.00;99498.19;5102291;28;20416;-78
2024/03/12 09:23:45;;;;;;;1.20;0.95;;;;;;;15.98;100.00;99490.13;5100265;28;20436;-77
2024/03/12 09:26:10;;;;;;;3.67;1.50;;;;;;;16.39;100.00;99500.88;5099671;28;20103;-78
2024/03/12 09:28:36;;;;;;;1.75;1.23;;;;;;;15.66;100.00;99512.63;5100076;28;20078;-78
2024/03/12 09:31:05;;;;;;;1.83;0.73;;;;;;;15.22;100.00;99496.13;5081365;28;20578;-78
2024/03/12 09:33:31;;;;;;;2.65;0.95;;;;;;;15.59;100.00;99498.66;5097906;28;20159;-78
2024/03/12 09:35:57;;;;;;;2.42;0.90;;;;;;;15.47;100.00;99490.03;5098097;28;20040;-78
2024/03/12 09:38:24;;;;;;;3.30;1.80;;;;;;;15.76;100.00;99498.44;5077293;28;20026;-77
2024/03/12 09:40:52;;;;;;;2.80;1.20;;;;;;;15.14;100.00;99494.78;5094499;28;20034;-78
2024/03/12 09:43:21;;;;;;;1.83;0.80;;;;;;;14.92;100.00;99491.47;5093701;28;20059;-78
2024/03/12 09:45:47;;;;;;;1.50;0.75;;;;;;;15.24;100.00;99486.75;5092206;28;20028;-77
2024/03/12 09:48:16;;;;;;;0.73;0.50;;;;;;;15.32;100.00;99479.25;5091942;28;20097;-78
2024/03/12 09:50:42;;;;;;;2.08;1.00;;;;;;;15.61;100.00;99480.38;5090808;28;20028;-77
2024/03/12 09:53:11;;;;;;;0.60;0.50;;;;;;;15.87;100.00;99472.38;5090646;28;20047;-79
2024/03/12 09:55:38;;;;;;;1.83;0.38;;;;;;;15.81;100.00;99478.81;5072803;28;20028;-78
2024/03/12 09:58:06;;;;;;;0.95;0.50;;;;;;;15.88;100.00;99465.94;5090836;28;20073;-78
2024/03/12 10:00:33;;;;;;;0.52;0.47;;;;;;;16.44;100.00;99465.88;5090286;28;20413;-78
2024/03/12 10:02:59;;;;;;;0.93;0.38;;;;;;;16.38;100.00;99452.69;5089892;28;20485;-78
2024/03/12 10:05:25;;;;;;;1.45;0.52;;;;;;;16.64;100.00;99453.47;5090089;28;20078;-78
2024/03/12 10:08:14;;;;;;;2.38;1.08;;;;;;;16.21;100.00;99447.63;5090228;28;20016;-77
2024/03/12 10:10:47;;;;;;;2.45;0.98;;;;;;;16.27;100.00;99457.31;5089788;28;20034;-78
2024/03/12 10:13:17;;;;;;;4.05;1.35;;;;;;;16.65;100.00;99446.97;5089354;28;20497;-77
2024/03/12 10:15:50;;;;;;;2.58;0.80;;;;;;;16.23;100.00;99448.16;5089416;28;20028;-79
2024/03/12 10:18:18;;;;;;;3.25;1.13;;;;;;;16.74;100.00;99450.72;5089578;28;20493;-78
2024/03/12 10:20:54;;;;;;;0.60;0.40;;;;;;;16.55;100.00;99438.94;5089169;28;20500;-78
2024/03/12 10:23:23;;;;;;;9.93;3.63;;;;;;;16.79;100.00;99452.59;5088805;28;20044;-78
2024/03/12 10:25:51;;;;;;;5.55;1.88;;;;;;;17.07;100.00;99461.94;5070985;28;20492;-78
2024/03/12 10:28:24;;;;;;;2.20;0.90;;;;;;;17.24;100.00;99440.03;5088718;28;20052;-78
2024/03/12 10:30:51;;;;;;;2.35;0.82;;;;;;;17.27;100.00;99436.78;5088458;28;20024;-78
2024/03/12 10:33:18;;;;;;;3.78;1.20;;;;;;;17.50;100.00;99429.91;5088643;28;20044;-79
2024/03/12 10:35:45;;;;;;;2.85;1.20;;;;;;;17.16;100.00;99444.13;5088891;28;20024;-78
2024/03/12 10:38:25;;;;;;;1.47;0.60;;;;;;;16.95;100.00;99429.13;5088727;28;20036;-78
2024/03/12 10:40:52;;;;;;;0.75;0.50;;;;;;;17.05;100.00;99423.69;5089071;28;20274;-78
2024/03/12 10:43:21;;;;;;;0.68;0.50;;;;;;;17.18;100.00;99423.09;5088644;28;20034;-78
2024/03/12 10:45:50;;;;;;;1.23;0.52;;;;;;;16.91;100.00;99417.31;5068100;28;20038;-77
2024/03/12 10:48:17;;;;;;;0.90;0.60;;;;;;;17.68;100.00;99434.63;5069838;28;20417;-78
2024/03/12 10:50:44;;;;;;;0.68;0.40;;;;;;;17.21;100.00;99403.66;5088458;28;20064;-78
2024/03/12 10:53:13;;;;;;;1.15;0.40;;;;;;;16.97;100.00;99419.69;5088072;28;20077;-78
2024/03/12 10:55:40;;;;;;;1.85;0.47;;;;;;;16.67;100.00;99396.34;5087934;28;20485;-78
2024/03/12 10:58:06;;;;;;;2.70;0.57;;;;;;;16.84;100.00;99421.09;5088330;28;20028;-78
2024/03/12 11:00:35;;;;;;;2.33;0.70;;;;;;;16.51;100.00;99408.25;5087908;28;20028;-78
2024/03/12 11:03:01;;;;;;;1.17;0.40;;;;;;;16.54;100.00;99413.09;5087807;28;20032;-78
2024/03/12 11:05:27;;;;;;;0.60;0.40;;;;;;;16.39;100.00;99412.06;5087878;28;20038;-77
2024/03/12 11:07:57;;;;;;;2.15;0.90;;;;;;;16.43;100.00;99396.19;5087663;28;20413;-78
2024/03/12 11:10:26;;;;;;;2.38;1.10;;;;;;;16.42;100.00;99410.72;5087531;28;20112;-78
2024/03/12 11:12:54;;;;;;;2.10;1.10;;;;;;;16.43;100.00;99399.69;5069333;28;20048;-77
2024/03/12 11:15:20;;;;;;;1.53;0.77;;;;;;;16.85;100.00;99387.69;5087714;28;20571;-78
2024/03/12 11:17:49;;;;;;;1.45;0.50;;;;;;;16.25;100.00;99398.38;5088141;28;20036;-77
2024/03/12 11:20:22;;;;;;;2.35;1.10;;;;;;;16.16;100.00;99391.97;5087763;28;20043;-78
2024/03/12 11:22:50;;;;;;;1.15;0.60;;;;;;;16.45;100.00;99378.69;5087607;28;20024;-78
2024/03/12 11:25:27;;;;;;;2.15;1.10;;;;;;;17.32;100.00;99396.31;5087617;28;20080;-77